Time;durP1;ratioP1;P1;durP2;ratioP2;P2;SDS_P1;SDS_P2;PMS_P1;PMS_P2;Temp;Humidity;BMP_temperature;BMP_pressure;BME280_temperature;BME280_humidity;BME280_pressure;Samples;Min_cycle;Max_cycle;Signal;HPM_P1;HPM_P2
2021/10/15 00:00:28;;;;;;;2.50;1.70;;;;;;;;;;5114181;28;20076;-61
2021/10/15 00:02:58;;;;;;;4.28;2.35;;;;;;;;;;5113896;28;20028;-62
2021/10/15 00:05:24;;;;;;;5.75;2.00;;;;;;;;;;5114069;28;20032;-62
2021/10/15 00:07:51;;;;;;;4.13;2.03;;;;;;;;;;5114227;28;20411;-62
2021/10/15 00:10:18;;;;;;;5.65;2.55;;;;;;;;;;5103171;28;20103;-62
2021/10/15 00:12:45;;;;;;;7.43;2.20;;;;;;;;;;5088452;28;20035;-61
2021/10/15 00:15:12;;;;;;;4.43;2.30;;;;;;;;;;5083625;28;20107;-62
2021/10/15 00:17:38;;;;;;;5.10;2.25;;;;;;;;;;5107042;28;20020;-62
2021/10/15 00:20:06;;;;;;;5.93;2.40;;;;;;;;;;5105235;28;20016;-61
2021/10/15 00:22:33;;;;;;;6.18;2.33;;;;;;;;;;5093544;28;20028;-61
2021/10/15 00:25:00;;;;;;;8.15;2.83;;;;;;;;;;5093036;28;20036;-61
2021/10/15 00:27:27;;;;;;;7.72;2.15;;;;;;;;;;5091813;28;20479;-61
2021/10/15 00:29:54;;;;;;;6.75;2.40;;;;;;;;;;5082447;28;20386;-61
2021/10/15 00:32:20;;;;;;;4.67;2.90;;;;;;;;;;5080743;28;20356;-61
2021/10/15 00:34:47;;;;;;;6.57;2.80;;;;;;;;;;5071515;28;20379;-60
2021/10/15 00:37:17;;;;;;;4.57;2.77;;;;;;;;;;5066919;28;20376;-65
2021/10/15 00:39:44;;;;;;;6.70;2.70;;;;;;;;;;5087582;28;20035;-61
2021/10/15 00:42:11;;;;;;;3.67;2.17;;;;;;;;;;5070279;28;20028;-61
2021/10/15 00:44:38;;;;;;;3.73;2.10;;;;;;;;;;5071761;28;20029;-62
2021/10/15 00:47:05;;;;;;;5.03;2.33;;;;;;;;;;5072452;28;20033;-61
2021/10/15 00:49:32;;;;;;;6.47;2.03;;;;;;;;;;5090735;28;20371;-61
2021/10/15 00:52:00;;;;;;;3.83;2.03;;;;;;;;;;5091994;28;20074;-61
2021/10/15 00:54:26;;;;;;;4.10;2.17;;;;;;;;;;5089821;28;20032;-61
2021/10/15 00:56:54;;;;;;;3.70;1.77;;;;;;;;;;5068083;28;20116;-61
2021/10/15 00:59:24;;;;;;;5.67;2.80;;;;;;;;;;5083685;28;20081;-61
2021/10/15 01:01:51;;;;;;;10.33;2.93;;;;;;;;;;5086600;28;20020;-61
2021/10/15 01:04:18;;;;;;;5.93;2.20;;;;;;;;;;5074122;28;20051;-61
2021/10/15 01:06:45;;;;;;;6.00;2.43;;;;;;;;;;5071978;28;20035;-62
2021/10/15 01:09:12;;;;;;;9.37;2.70;;;;;;;;;;5071723;28;20029;-61
2021/10/15 01:11:39;;;;;;;4.53;2.30;;;;;;;;;;5082446;28;20028;-61
2021/10/15 01:14:08;;;;;;;4.27;2.00;;;;;;;;;;5089982;28;20032;-62
2021/10/15 01:16:35;;;;;;;5.17;2.10;;;;;;;;;;5085988;28;20488;-61
2021/10/15 01:19:04;;;;;;;3.80;2.00;;;;;;;;;;5085233;28;20131;-61
2021/10/15 01:21:31;;;;;;;4.60;2.80;;;;;;;;;;5086144;28;20028;-61
2021/10/15 01:23:58;;;;;;;5.77;2.60;;;;;;;;;;5076419;28;20475;-61
2021/10/15 01:26:25;;;;;;;8.13;2.40;;;;;;;;;;5065960;28;20029;-61
2021/10/15 01:28:53;;;;;;;7.83;3.00;;;;;;;;;;5071926;28;20032;-61
2021/10/15 01:31:20;;;;;;;6.37;2.90;;;;;;;;;;5079854;28;20028;-61
2021/10/15 01:33:47;;;;;;;4.23;2.47;;;;;;;;;;5091417;28;20478;-60
2021/10/15 01:36:13;;;;;;;6.80;2.37;;;;;;;;;;5089675;28;20549;-60
2021/10/15 01:38:40;;;;;;;8.37;2.80;;;;;;;;;;5091159;28;20020;-59
2021/10/15 01:41:09;;;;;;;4.33;2.10;;;;;;;;;;5086494;28;20077;-59
2021/10/15 01:43:35;;;;;;;6.13;2.70;;;;;;;;;;5078105;28;20127;-59
2021/10/15 01:46:02;;;;;;;5.63;2.57;;;;;;;;;;5072411;28;20064;-59
2021/10/15 01:48:29;;;;;;;6.77;2.67;;;;;;;;;;5086270;28;20132;-59
2021/10/15 01:50:56;;;;;;;8.90;2.93;;;;;;;;;;5089461;28;20028;-60
2021/10/15 01:53:23;;;;;;;5.67;2.27;;;;;;;;;;5091313;28;20035;-59
2021/10/15 01:55:50;;;;;;;4.70;2.30;;;;;;;;;;5091412;28;20023;-60
2021/10/15 01:58:20;;;;;;;5.23;2.50;;;;;;;;;;5089571;28;20021;-59
2021/10/15 02:00:47;;;;;;;6.83;2.57;;;;;;;;;;5078359;28;20062;-59
2021/10/15 02:03:14;;;;;;;16.80;2.77;;;;;;;;;;5089717;28;20063;-60
2021/10/15 02:05:41;;;;;;;3.87;2.30;;;;;;;;;;5083931;28;20028;-60
2021/10/15 02:08:07;;;;;;;7.27;2.23;;;;;;;;;;5073775;28;20028;-60
2021/10/15 02:10:34;;;;;;;3.67;1.90;;;;;;;;;;5089527;28;20509;-60
2021/10/15 02:13:01;;;;;;;4.20;2.10;;;;;;;;;;5094239;28;20081;-60
2021/10/15 02:15:28;;;;;;;4.73;2.03;;;;;;;;;;5090243;28;20107;-59
2021/10/15 02:17:55;;;;;;;4.30;1.87;;;;;;;;;;5075329;28;20149;-59
2021/10/15 02:20:22;;;;;;;6.87;2.00;;;;;;;;;;5075181;28;20162;-60
2021/10/15 02:22:50;;;;;;;7.83;2.30;;;;;;;;;;5075032;28;20056;-59
2021/10/15 02:25:17;;;;;;;4.73;2.63;;;;;;;;;;5087939;28;20239;-59
2021/10/15 02:27:44;;;;;;;5.67;2.60;;;;;;;;;;5075353;28;20029;-59
2021/10/15 02:30:12;;;;;;;5.83;2.10;;;;;;;;;;5070443;28;20093;-59
2021/10/15 02:32:39;;;;;;;3.80;2.30;;;;;;;;;;5069326;28;20028;-60
2021/10/15 02:35:06;;;;;;;3.50;2.00;;;;;;;;;;5073491;28;20032;-60
2021/10/15 02:37:33;;;;;;;3.60;1.63;;;;;;;;;;5095141;28;20021;-59
2021/10/15 02:40:00;;;;;;;3.47;2.10;;;;;;;;;;5095011;28;20360;-59
2021/10/15 02:42:27;;;;;;;9.97;1.90;;;;;;;;;;5075934;28;20475;-60
2021/10/15 02:44:53;;;;;;;4.07;2.13;;;;;;;;;;5074656;28;20119;-60
2021/10/15 02:47:21;;;;;;;4.30;1.70;;;;;;;;;;5070338;28;20028;-59
2021/10/15 02:49:49;;;;;;;2.87;1.63;;;;;;;;;;5086347;28;20093;-59
2021/10/15 02:52:17;;;;;;;3.57;1.70;;;;;;;;;;5089043;28;20081;-60
2021/10/15 02:54:44;;;;;;;4.00;2.50;;;;;;;;;;5086805;28;20490;-58
2021/10/15 02:57:11;;;;;;;3.93;1.97;;;;;;;;;;5086323;28;20015;-58
2021/10/15 02:59:37;;;;;;;5.03;2.10;;;;;;;;;;5115229;28;20027;-58
2021/10/15 03:02:04;;;;;;;4.20;2.20;;;;;;;;;;5102552;28;20066;-59
2021/10/15 03:04:31;;;;;;;7.60;2.00;;;;;;;;;;5094407;28;20024;-57
2021/10/15 03:06:58;;;;;;;4.43;2.40;;;;;;;;;;5094573;28;20524;-61
2021/10/15 03:09:25;;;;;;;3.60;2.37;;;;;;;;;;5090731;28;20046;-61
2021/10/15 03:11:54;;;;;;;3.97;2.27;;;;;;;;;;5089124;28;20113;-59
2021/10/15 03:14:22;;;;;;;4.80;2.33;;;;;;;;;;5079742;28;20067;-59
2021/10/15 03:16:49;;;;;;;3.20;1.83;;;;;;;;;;5068825;28;20029;-60
2021/10/15 03:19:16;;;;;;;2.77;1.70;;;;;;;;;;5070910;28;20031;-59
2021/10/15 03:21:43;;;;;;;3.23;2.00;;;;;;;;;;5075250;28;20040;-59
2021/10/15 03:24:10;;;;;;;3.00;1.63;;;;;;;;;;5074045;28;20032;-59
2021/10/15 03:26:36;;;;;;;5.77;2.17;;;;;;;;;;5073885;28;20021;-59
2021/10/15 03:29:03;;;;;;;3.70;2.30;;;;;;;;;;5083300;28;20063;-59
2021/10/15 03:31:30;;;;;;;3.63;2.00;;;;;;;;;;5090930;28;20020;-61
2021/10/15 03:33:57;;;;;;;5.23;2.67;;;;;;;;;;5088399;28;20031;-60
2021/10/15 03:36:24;;;;;;;3.83;2.20;;;;;;;;;;5086061;28;20028;-59
2021/10/15 03:38:51;;;;;;;3.93;2.17;;;;;;;;;;5088411;28;20458;-59
2021/10/15 03:41:17;;;;;;;3.93;2.40;;;;;;;;;;5090178;28;20024;-59
2021/10/15 03:43:44;;;;;;;6.83;2.40;;;;;;;;;;5089771;28;20467;-59
2021/10/15 03:46:11;;;;;;;4.37;2.53;;;;;;;;;;5073564;28;20042;-59
2021/10/15 03:48:38;;;;;;;5.13;2.53;;;;;;;;;;5073494;28;20028;-60
2021/10/15 03:51:05;;;;;;;4.10;2.20;;;;;;;;;;5077218;28;20028;-59
2021/10/15 03:53:32;;;;;;;3.83;2.20;;;;;;;;;;5088759;28;20480;-61
2021/10/15 03:55:59;;;;;;;3.90;2.27;;;;;;;;;;5081099;28;20027;-61
2021/10/15 03:58:26;;;;;;;4.23;2.47;;;;;;;;;;5087700;28;20031;-61
2021/10/15 04:00:52;;;;;;;7.33;2.20;;;;;;;;;;5086671;28;20020;-61
2021/10/15 04:03:20;;;;;;;8.40;2.40;;;;;;;;;;5089247;28;20470;-61
2021/10/15 04:05:47;;;;;;;4.43;2.30;;;;;;;;;;5092704;28;20028;-61
2021/10/15 04:08:14;;;;;;;6.20;2.43;;;;;;;;;;5091890;28;20455;-61
2021/10/15 04:10:41;;;;;;;2.93;1.90;;;;;;;;;;5082813;28;20059;-59
2021/10/15 04:13:08;;;;;;;7.70;2.40;;;;;;;;;;5090795;28;20024;-59
2021/10/15 04:15:34;;;;;;;4.23;2.27;;;;;;;;;;5088340;28;20028;-59
2021/10/15 04:18:01;;;;;;;4.27;2.17;;;;;;;;;;5079654;28;20031;-61
2021/10/15 04:20:28;;;;;;;5.40;2.90;;;;;;;;;;5066451;28;20035;-59
2021/10/15 04:22:54;;;;;;;4.23;2.70;;;;;;;;;;5067365;28;20012;-59
2021/10/15 04:25:21;;;;;;;6.27;2.60;;;;;;;;;;5079661;28;20039;-59
2021/10/15 04:27:48;;;;;;;7.30;2.80;;;;;;;;;;5072437;28;20074;-59
2021/10/15 04:30:15;;;;;;;6.77;3.50;;;;;;;;;;5078268;28;20031;-58
2021/10/15 04:32:42;;;;;;;7.77;3.73;;;;;;;;;;5092233;28;20012;-59
2021/10/15 04:35:09;;;;;;;8.50;4.10;;;;;;;;;;5092286;28;20095;-59
2021/10/15 04:37:35;;;;;;;6.53;3.80;;;;;;;;;;5091902;28;20024;-59
2021/10/15 04:40:02;;;;;;;12.77;4.07;;;;;;;;;;5071995;28;20024;-58
2021/10/15 04:42:29;;;;;;;6.20;3.93;;;;;;;;;;5067035;28;20097;-59
2021/10/15 04:44:56;;;;;;;7.10;3.53;;;;;;;;;;5069652;28;20456;-59
2021/10/15 04:47:23;;;;;;;6.77;2.63;;;;;;;;;;5086977;28;20493;-58
2021/10/15 04:49:50;;;;;;;5.77;2.90;;;;;;;;;;5092379;28;20027;-59
2021/10/15 04:52:17;;;;;;;5.37;2.90;;;;;;;;;;5089939;28;20482;-59
2021/10/15 04:54:44;;;;;;;7.57;3.27;;;;;;;;;;5092253;28;20429;-59
2021/10/15 04:57:11;;;;;;;6.63;3.10;;;;;;;;;;5092314;28;20055;-59
2021/10/15 04:59:37;;;;;;;4.63;2.60;;;;;;;;;;5080896;28;20029;-60
2021/10/15 05:02:04;;;;;;;4.77;2.50;;;;;;;;;;5074063;28;20465;-61
2021/10/15 05:04:31;;;;;;;4.90;2.40;;;;;;;;;;5086931;28;20035;-61
2021/10/15 05:06:59;;;;;;;4.70;2.70;;;;;;;;;;5075825;28;20017;-59
2021/10/15 05:09:33;;;;;;;10.73;2.87;;;;;;;;;;5083129;28;20028;-61
2021/10/15 05:12:01;;;;;;;4.50;2.30;;;;;;;;;;5091695;28;20020;-59
2021/10/15 05:14:28;;;;;;;4.17;2.40;;;;;;;;;;5085157;28;20044;-60
2021/10/15 05:16:55;;;;;;;7.80;3.73;;;;;;;;;;5071924;28;20028;-60
2021/10/15 05:19:22;;;;;;;5.60;2.50;;;;;;;;;;5072382;28;20029;-61
2021/10/15 05:21:48;;;;;;;3.97;2.23;;;;;;;;;;5078250;28;20051;-59
2021/10/15 05:24:15;;;;;;;7.10;3.20;;;;;;;;;;5086827;28;20101;-58
2021/10/15 05:26:42;;;;;;;5.83;3.13;;;;;;;;;;5086690;28;20066;-58
2021/10/15 05:29:09;;;;;;;4.20;2.63;;;;;;;;;;5080450;28;20027;-58
2021/10/15 05:31:36;;;;;;;6.23;3.40;;;;;;;;;;5068000;28;20020;-59
2021/10/15 05:34:02;;;;;;;6.63;3.40;;;;;;;;;;5074898;28;20032;-58
2021/10/15 05:36:29;;;;;;;5.07;3.10;;;;;;;;;;5082043;28;20028;-58
2021/10/15 05:38:56;;;;;;;5.30;3.27;;;;;;;;;;5096017;28;20479;-58
2021/10/15 05:41:23;;;;;;;5.37;3.20;;;;;;;;;;5096037;28;20071;-58
2021/10/15 05:43:49;;;;;;;4.30;2.70;;;;;;;;;;5095620;28;20032;-59
2021/10/15 05:46:16;;;;;;;6.47;3.53;;;;;;;;;;5070427;28;20410;-58
2021/10/15 05:48:43;;;;;;;5.57;3.20;;;;;;;;;;5070220;28;20534;-58
2021/10/15 05:51:10;;;;;;;4.10;2.83;;;;;;;;;;5078602;28;20643;-58
2021/10/15 05:53:37;;;;;;;7.20;3.57;;;;;;;;;;5090258;28;20057;-58
2021/10/15 05:58:57;;;;;;;6.00;3.27;;;;;;;;;;5054378;28;20028;-59
2021/10/15 06:01:26;;;;;;;6.07;3.40;;;;;;;;;;5075548;28;20028;-58
2021/10/15 06:04:44;;;;;;;7.77;4.90;;;;;;;;;;5075309;28;20080;-59
2021/10/15 06:13:47;;;;;;;9.13;5.20;;;;;;;;;;5089672;28;20490;-59
2021/10/15 06:15:10;;;;;;;7.97;4.13;;;;;;;;;;5035035;28;20039;-59
2021/10/15 06:17:43;;;;;;;8.13;3.90;;;;;;;;;;5071685;28;20100;-58
2021/10/15 06:20:11;;;;;;;10.43;4.03;;;;;;;;;;5075249;28;20058;-58
2021/10/15 06:22:38;;;;;;;6.17;3.47;;;;;;;;;;5086064;28;20027;-58
2021/10/15 06:25:05;;;;;;;5.83;3.23;;;;;;;;;;5095143;28;20047;-58
2021/10/15 06:27:31;;;;;;;5.33;2.77;;;;;;;;;;5094498;28;20455;-58
2021/10/15 06:29:59;;;;;;;6.07;3.43;;;;;;;;;;5081861;28;20796;-59
2021/10/15 06:32:25;;;;;;;6.33;3.87;;;;;;;;;;5069523;28;20459;-58
2021/10/15 06:34:52;;;;;;;6.90;3.73;;;;;;;;;;5069560;28;20027;-58
2021/10/15 06:37:19;;;;;;;6.27;3.60;;;;;;;;;;5080021;28;20100;-59
2021/10/15 06:39:46;;;;;;;8.70;4.87;;;;;;;;;;5090805;28;20028;-58
2021/10/15 06:42:12;;;;;;;9.73;5.37;;;;;;;;;;5094127;28;20032;-58
2021/10/15 06:44:39;;;;;;;6.73;4.00;;;;;;;;;;5088913;28;20100;-58
2021/10/15 06:47:06;;;;;;;6.03;3.77;;;;;;;;;;5074713;28;20117;-59
2021/10/15 06:49:33;;;;;;;7.60;4.27;;;;;;;;;;5074824;28;20031;-58
2021/10/15 06:52:00;;;;;;;6.30;3.77;;;;;;;;;;5076902;28;20483;-58
2021/10/15 06:54:26;;;;;;;6.47;3.50;;;;;;;;;;5089218;28;20028;-58
2021/10/15 06:56:53;;;;;;;7.80;3.70;;;;;;;;;;5089082;28;20497;-58
2021/10/15 06:59:20;;;;;;;6.20;3.80;;;;;;;;;;5084539;28;20063;-58
2021/10/15 07:01:47;;;;;;;7.67;4.10;;;;;;;;;;5075761;28;20032;-58
2021/10/15 07:04:13;;;;;;;6.07;3.87;;;;;;;;;;5094046;28;20040;-59
2021/10/15 07:06:40;;;;;;;9.60;3.37;;;;;;;;;;5094551;28;20032;-58
2021/10/15 07:09:07;;;;;;;7.40;3.80;;;;;;;;;;5092351;28;20016;-58
2021/10/15 07:11:38;;;;;;;6.20;3.43;;;;;;;;;;5074380;28;20028;-58
2021/10/15 07:14:05;;;;;;;6.93;3.37;;;;;;;;;;5073272;28;20067;-58
2021/10/15 07:16:31;;;;;;;7.13;3.20;;;;;;;;;;5072423;28;20032;-58
2021/10/15 07:18:58;;;;;;;5.80;3.63;;;;;;;;;;5088180;28;20028;-58
2021/10/15 07:21:25;;;;;;;6.67;3.03;;;;;;;;;;5069109;28;20418;-58
2021/10/15 07:23:54;;;;;;;5.50;3.30;;;;;;;;;;5068740;28;20791;-58
2021/10/15 07:26:21;;;;;;;6.37;4.27;;;;;;;;;;5090850;28;20036;-58
2021/10/15 07:28:48;;;;;;;5.80;3.67;;;;;;;;;;5094214;28;20028;-59
2021/10/15 07:31:14;;;;;;;6.90;4.33;;;;;;;;;;5093522;28;20020;-58
2021/10/15 07:33:41;;;;;;;6.17;3.93;;;;;;;;;;5076665;28;20379;-58
2021/10/15 07:36:08;;;;;;;6.33;4.10;;;;;;;;;;5073424;28;20451;-59
2021/10/15 07:38:36;;;;;;;5.47;3.40;;;;;;;;;;5068257;28;20075;-59
2021/10/15 07:41:03;;;;;;;6.37;3.73;;;;;;;;;;5085035;28;20115;-59
2021/10/15 07:43:30;;;;;;;5.97;4.03;;;;;;;;;;5088080;28;20028;-58
2021/10/15 07:45:57;;;;;;;6.63;3.63;;;;;;;;;;5088188;28;20028;-58
2021/10/15 07:48:24;;;;;;;6.60;3.90;;;;;;;;;;5076850;28;20112;-58
2021/10/15 07:50:51;;;;;;;5.67;3.80;;;;;;;;;;5073306;28;20032;-58
2021/10/15 07:53:17;;;;;;;6.70;3.97;;;;;;;;;;5080096;28;20115;-58
2021/10/15 07:55:45;;;;;;;5.80;3.47;;;;;;;;;;5087981;28;20023;-58
2021/10/15 07:58:12;;;;;;;6.83;3.67;;;;;;;;;;5073402;28;20162;-58
2021/10/15 08:00:40;;;;;;;6.00;3.67;;;;;;;;;;5068097;28;20017;-58
2021/10/15 08:03:07;;;;;;;5.83;3.23;;;;;;;;;;5071537;28;20371;-58
2021/10/15 08:05:34;;;;;;;6.30;3.90;;;;;;;;;;5087769;28;20020;-58
2021/10/15 08:08:00;;;;;;;6.07;3.43;;;;;;;;;;5087724;28;20023;-58
2021/10/15 08:10:27;;;;;;;6.70;4.00;;;;;;;;;;5092264;28;20394;-58
2021/10/15 08:12:54;;;;;;;5.93;3.73;;;;;;;;;;5084356;28;20032;-58
2021/10/15 08:15:21;;;;;;;5.77;3.47;;;;;;;;;;5073227;28;20024;-58
2021/10/15 08:17:48;;;;;;;5.93;3.57;;;;;;;;;;5072963;28;20486;-58
2021/10/15 08:20:16;;;;;;;7.43;3.63;;;;;;;;;;5080859;28;20027;-58
2021/10/15 08:22:43;;;;;;;9.30;4.40;;;;;;;;;;5087983;28;20081;-59
2021/10/15 08:25:09;;;;;;;5.77;3.60;;;;;;;;;;5087291;28;20112;-57
2021/10/15 08:27:36;;;;;;;5.77;3.50;;;;;;;;;;5079048;28;20542;-59
2021/10/15 08:30:03;;;;;;;7.33;4.33;;;;;;;;;;5067298;28;20028;-58
2021/10/15 08:32:30;;;;;;;5.37;3.50;;;;;;;;;;5071040;28;20032;-58
2021/10/15 08:34:57;;;;;;;7.00;4.10;;;;;;;;;;5074907;28;20024;-58
2021/10/15 08:37:24;;;;;;;7.83;4.20;;;;;;;;;;5092638;28;20428;-58
2021/10/15 08:39:50;;;;;;;6.60;4.10;;;;;;;;;;5092666;28;20461;-58
2021/10/15 08:42:17;;;;;;;6.33;3.43;;;;;;;;;;5090180;28;20060;-58
2021/10/15 08:44:48;;;;;;;7.30;4.20;;;;;;;;;;5086263;28;20089;-58
2021/10/15 08:47:16;;;;;;;7.80;4.63;;;;;;;;;;5085048;28;20023;-58
2021/10/15 08:49:43;;;;;;;7.40;4.57;;;;;;;;;;5083202;28;20040;-58
2021/10/15 08:52:11;;;;;;;9.33;4.50;;;;;;;;;;5067346;28;20025;-58
2021/10/15 08:54:38;;;;;;;7.80;4.60;;;;;;;;;;5070791;28;20108;-58
2021/10/15 08:57:07;;;;;;;6.53;4.13;;;;;;;;;;5082297;28;20128;-58
2021/10/15 08:59:38;;;;;;;10.13;5.13;;;;;;;;;;5092230;28;20270;-57
2021/10/15 09:02:11;;;;;;;8.50;4.53;;;;;;;;;;5092220;28;20088;-58
2021/10/15 09:04:57;;;;;;;6.83;4.13;;;;;;;;;;5091368;28;20035;-58
2021/10/15 09:07:26;;;;;;;7.10;4.00;;;;;;;;;;5086354;28;20081;-58
2021/10/15 09:10:16;;;;;;;7.87;4.07;;;;;;;;;;5087274;28;20020;-58
2021/10/15 09:12:47;;;;;;;7.90;4.60;;;;;;;;;;5084654;28;20446;-58
2021/10/15 09:15:16;;;;;;;7.27;4.20;;;;;;;;;;5066598;28;20032;-58
2021/10/15 09:17:50;;;;;;;9.60;4.20;;;;;;;;;;5071702;28;20060;-57
2021/10/15 09:20:30;;;;;;;7.80;4.80;;;;;;;;;;5072039;28;20040;-58
2021/10/15 09:22:57;;;;;;;8.47;4.87;;;;;;;;;;5082078;28;20436;-58
2021/10/15 09:25:31;;;;;;;8.00;5.30;;;;;;;;;;5077275;28;20032;-58
2021/10/15 09:27:58;;;;;;;6.85;4.25;;;;;;;;;;5090406;28;20470;-58
2021/10/15 09:30:25;;;;;;;10.33;5.00;;;;;;;;;;5086725;28;20732;-58
2021/10/15 09:32:54;;;;;;;7.73;4.17;;;;;;;;;;5086957;28;20124;-57
2021/10/15 09:35:25;;;;;;;7.00;4.53;;;;;;;;;;5069543;28;20033;-58
2021/10/15 09:37:55;;;;;;;6.13;4.20;;;;;;;;;;5066721;28;20447;-58
2021/10/15 09:40:23;;;;;;;7.77;4.23;;;;;;;;;;5071852;28;20404;-57
2021/10/15 09:42:54;;;;;;;9.00;4.67;;;;;;;;;;5075790;28;20084;-58
2021/10/15 09:45:28;;;;;;;8.40;4.60;;;;;;;;;;5091439;28;20127;-58
2021/10/15 09:47:58;;;;;;;7.67;4.47;;;;;;;;;;5091525;28;20028;-57
2021/10/15 09:50:27;;;;;;;5.70;3.47;;;;;;;;;;5084068;28;20783;-57
2021/10/15 09:53:04;;;;;;;8.37;4.87;;;;;;;;;;5070785;28;20050;-57
2021/10/15 09:55:36;;;;;;;6.27;4.23;;;;;;;;;;5078207;28;20498;-58
2021/10/15 09:58:09;;;;;;;7.23;4.07;;;;;;;;;;5065881;28;20100;-58
2021/10/15 10:00:36;;;;;;;8.83;4.20;;;;;;;;;;5074890;28;20039;-57
2021/10/15 10:03:03;;;;;;;5.73;3.30;;;;;;;;;;5091732;28;20052;-57
2021/10/15 10:05:33;;;;;;;6.77;3.40;;;;;;;;;;5091670;28;20016;-57
2021/10/15 10:08:01;;;;;;;4.70;3.03;;;;;;;;;;5083697;28;20095;-57
2021/10/15 10:10:28;;;;;;;4.70;2.67;;;;;;;;;;5071523;28;20436;-57
2021/10/15 10:12:56;;;;;;;4.33;2.73;;;;;;;;;;5069598;28;20028;-58
2021/10/15 10:15:24;;;;;;;5.07;3.17;;;;;;;;;;5066189;28;20463;-57
2021/10/15 10:17:55;;;;;;;7.33;4.00;;;;;;;;;;5087332;28;20268;-57
2021/10/15 10:20:33;;;;;;;7.23;3.10;;;;;;;;;;5089677;28;20272;-57
2021/10/15 10:23:08;;;;;;;4.80;3.00;;;;;;;;;;5086141;28;20258;-57
2021/10/15 10:25:36;;;;;;;5.67;3.03;;;;;;;;;;5075214;28;20994;-57
2021/10/15 10:28:14;;;;;;;6.00;3.53;;;;;;;;;;5075116;28;20063;-57
2021/10/15 10:30:43;;;;;;;5.87;3.67;;;;;;;;;;5081968;28;20310;-57
2021/10/15 10:33:10;;;;;;;5.87;3.70;;;;;;;;;;5095195;28;20304;-57
2021/10/15 10:35:37;;;;;;;5.50;3.23;;;;;;;;;;5092168;28;20264;-57
2021/10/15 10:38:16;;;;;;;5.60;3.47;;;;;;;;;;5069867;28;20265;-57
2021/10/15 10:41:01;;;;;;;5.70;3.43;;;;;;;;;;5069371;28;20353;-58
2021/10/15 10:43:29;;;;;;;5.35;3.40;;;;;;;;;;5076451;28;20439;-57
2021/10/15 10:46:25;;;;;;;5.67;3.33;;;;;;;;;;5092212;28;20451;-57
2021/10/15 10:48:52;;;;;;;;;;;;;;;;;;5073888;28;20337;-57
2021/10/15 10:51:23;;;;;;;5.27;2.80;;;;;;;;;;5083125;28;19916;-57
2021/10/15 10:54:13;;;;;;;5.63;2.77;;;;;;;;;;5085040;28;20325;-57
2021/10/15 10:56:40;;;;;;;6.03;3.33;;;;;;;;;;5081969;28;20264;-57
2021/10/15 10:59:23;;;;;;;5.73;3.10;;;;;;;;;;5073866;28;20802;-58
2021/10/15 11:02:01;;;;;;;5.77;3.47;;;;;;;;;;5069233;28;20744;-58
2021/10/15 11:04:28;;;;;;;5.50;3.27;;;;;;;;;;5088406;28;20693;-57
2021/10/15 11:07:03;;;;;;;5.80;3.37;;;;;;;;;;5088456;28;20323;-57
2021/10/15 11:09:46;;;;;;;6.57;3.63;;;;;;;;;;5093854;28;20682;-58
2021/10/15 11:12:14;;;;;;;6.20;3.70;;;;;;;;;;5093020;28;20022;-57
2021/10/15 11:14:50;;;;;;;6.07;3.40;;;;;;;;;;5074500;28;20608;-57
2021/10/15 11:17:17;;;;;;;6.00;3.03;;;;;;;;;;5074144;28;20272;-57
2021/10/15 11:19:44;;;;;;;6.17;3.20;;;;;;;;;;5092283;28;20322;-57
2021/10/15 11:22:11;;;;;;;3.77;2.30;;;;;;;;;;5070293;28;20272;-58
2021/10/15 11:24:38;;;;;;;6.97;2.87;;;;;;;;;;5070572;28;20289;-57
2021/10/15 11:27:15;;;;;;;5.40;3.13;;;;;;;;;;5068542;28;20352;-58
2021/10/15 11:29:55;;;;;;;4.73;2.77;;;;;;;;;;5069079;28;20273;-58
2021/10/15 11:32:32;;;;;;;7.33;3.23;;;;;;;;;;5077022;28;20360;-58
2021/10/15 11:35:10;;;;;;;4.30;2.40;;;;;;;;;;5094067;28;20275;-58
2021/10/15 11:37:49;;;;;;;6.30;3.57;;;;;;;;;;5092280;28;20264;-58
2021/10/15 11:40:25;;;;;;;6.93;4.03;;;;;;;;;;5064203;28;20263;-58
2021/10/15 11:42:53;;;;;;;5.50;3.43;;;;;;;;;;5089796;28;20384;-58
2021/10/15 11:45:23;;;;;;;6.63;3.70;;;;;;;;;;5088056;28;20303;-58
2021/10/15 11:48:04;;;;;;;6.23;3.10;;;;;;;;;;5082281;28;20390;-58
2021/10/15 11:50:33;;;;;;;5.70;3.60;;;;;;;;;;5068663;28;20273;-58
2021/10/15 11:53:00;;;;;;;5.47;3.13;;;;;;;;;;5071573;28;20265;-58
2021/10/15 11:55:31;;;;;;;6.73;3.50;;;;;;;;;;5083733;28;20257;-58
2021/10/15 11:58:16;;;;;;;6.23;3.60;;;;;;;;;;5078053;28;20296;-58
2021/10/15 12:00:56;;;;;;;5.13;3.33;;;;;;;;;;5093040;28;20795;-58
2021/10/15 12:03:24;;;;;;;10.23;3.70;;;;;;;;;;5089778;28;20040;-58
2021/10/15 12:05:51;;;;;;;6.53;3.50;;;;;;;;;;5069300;28;20304;-59
2021/10/15 12:08:18;;;;;;;8.73;3.53;;;;;;;;;;5087241;28;20273;-58
2021/10/15 12:10:45;;;;;;;9.83;3.77;;;;;;;;;;5087629;28;20356;-57
2021/10/15 12:13:12;;;;;;;6.70;3.77;;;;;;;;;;5085250;28;20253;-58
2021/10/15 12:15:39;;;;;;;6.67;3.43;;;;;;;;;;5072015;28;20766;-58
2021/10/15 12:18:09;;;;;;;7.47;3.37;;;;;;;;;;5072996;28;20890;-58
2021/10/15 12:20:36;;;;;;;6.70;2.87;;;;;;;;;;5075096;28;20257;-58
2021/10/15 12:23:08;;;;;;;5.60;3.00;;;;;;;;;;5092986;28;20286;-58
2021/10/15 12:25:38;;;;;;;8.70;3.63;;;;;;;;;;5093253;28;20264;-58
2021/10/15 12:28:12;;;;;;;7.73;4.27;;;;;;;;;;5083804;28;20269;-58
2021/10/15 12:30:39;;;;;;;14.70;4.23;;;;;;;;;;5067349;28;20681;-57
2021/10/15 12:33:09;;;;;;;8.67;3.60;;;;;;;;;;5067015;28;20273;-58
2021/10/15 12:35:36;;;;;;;5.80;3.20;;;;;;;;;;5068216;28;20670;-57
2021/10/15 12:38:03;;;;;;;5.67;3.27;;;;;;;;;;5082082;28;20306;-58
2021/10/15 12:40:30;;;;;;;7.00;3.80;;;;;;;;;;5091363;28;20741;-58
2021/10/15 12:42:57;;;;;;;5.40;3.03;;;;;;;;;;5092691;28;20249;-58
2021/10/15 12:45:27;;;;;;;6.23;3.90;;;;;;;;;;5073237;28;20711;-57
2021/10/15 12:47:55;;;;;;;7.33;3.90;;;;;;;;;;5072588;28;20315;-58
2021/10/15 12:50:22;;;;;;;7.80;4.87;;;;;;;;;;5067176;28;20593;-57
2021/10/15 12:52:49;;;;;;;7.93;3.90;;;;;;;;;;5067220;28;20671;-58
2021/10/15 12:55:27;;;;;;;8.50;4.57;;;;;;;;;;5066585;28;20636;-59
2021/10/15 12:58:04;;;;;;;7.93;4.70;;;;;;;;;;5066873;28;20349;-58
2021/10/15 13:00:31;;;;;;;12.83;5.90;;;;;;;;;;5092316;28;20265;-58
2021/10/15 13:03:02;;;;;;;14.27;7.27;;;;;;;;;;5092146;28;20773;-57
2021/10/15 13:05:29;;;;;;;12.37;6.37;;;;;;;;;;5091520;28;20300;-58
2021/10/15 13:07:56;;;;;;;11.33;6.33;;;;;;;;;;5074792;28;20669;-58
2021/10/15 13:10:24;;;;;;;19.73;7.60;;;;;;;;;;5072240;28;20249;-57
2021/10/15 13:12:52;;;;;;;9.87;5.27;;;;;;;;;;5066711;28;20284;-57
2021/10/15 13:15:20;;;;;;;12.00;5.90;;;;;;;;;;5083885;28;20269;-58
2021/10/15 13:17:50;;;;;;;9.70;4.63;;;;;;;;;;5086546;28;20272;-59
2021/10/15 13:20:18;;;;;;;8.90;4.20;;;;;;;;;;5086418;28;20279;-58
2021/10/15 13:22:45;;;;;;;7.27;3.77;;;;;;;;;;5073728;28;20602;-58
2021/10/15 13:25:12;;;;;;;11.17;3.80;;;;;;;;;;5071954;28;20305;-58
2021/10/15 13:27:39;;;;;;;5.77;3.40;;;;;;;;;;5072079;28;20352;-57
2021/10/15 13:30:06;;;;;;;8.60;4.00;;;;;;;;;;5089686;28;20036;-58
2021/10/15 13:32:33;;;;;;;6.40;3.63;;;;;;;;;;5075633;28;20024;-57
2021/10/15 13:35:00;;;;;;;10.63;4.87;;;;;;;;;;5066169;28;20499;-58
2021/10/15 13:37:31;;;;;;;5.63;4.10;;;;;;;;;;5078707;28;20229;-58
2021/10/15 13:40:00;;;;;;;11.80;3.80;;;;;;;;;;5086307;28;20036;-58
2021/10/15 13:50:37;;;;;;;10.27;4.60;;;;;;;;;;5040229;28;20668;-58
2021/10/15 13:53:06;;;;;;;6.80;3.47;;;;;;;;;;5074214;28;20028;-59
2021/10/15 13:56:08;;;;;;;5.47;3.40;;;;;;;;;;5073951;28;20717;-58
2021/10/15 13:58:48;;;;;;;5.63;3.27;;;;;;;;;;5068720;28;20043;-58
2021/10/15 14:01:19;;;;;;;5.63;3.80;;;;;;;;;;5072111;28;20379;-59
2021/10/15 14:06:16;;;;;;;5.87;3.90;;;;;;;;;;5084409;28;20059;-59
2021/10/15 14:08:43;;;;;;;5.20;3.70;;;;;;;;;;5075406;28;20495;-59
2021/10/15 14:11:10;;;;;;;9.53;4.67;;;;;;;;;;5075510;28;20024;-59
2021/10/15 14:13:38;;;;;;;11.80;5.23;;;;;;;;;;5075284;28;20013;-59
2021/10/15 14:16:05;;;;;;;9.30;5.40;;;;;;;;;;5095236;28;20470;-59
2021/10/15 14:18:31;;;;;;;11.07;6.20;;;;;;;;;;5091758;28;20027;-58
2021/10/15 14:20:59;;;;;;;11.00;6.10;;;;;;;;;;5089036;28;20028;-58
2021/10/15 14:23:26;;;;;;;9.30;5.37;;;;;;;;;;5069537;28;20039;-59
2021/10/15 14:25:54;;;;;;;17.73;5.83;;;;;;;;;;5069845;28;20047;-59
2021/10/15 14:28:22;;;;;;;10.73;5.47;;;;;;;;;;5072865;28;20033;-58
2021/10/15 14:30:49;;;;;;;6.77;4.40;;;;;;;;;;5095339;28;20032;-60
2021/10/15 14:33:16;;;;;;;8.33;4.37;;;;;;;;;;5095174;28;20028;-59
2021/10/15 14:35:43;;;;;;;10.17;4.80;;;;;;;;;;5095001;28;20402;-59
2021/10/15 14:38:10;;;;;;;9.43;4.60;;;;;;;;;;5079125;28;20538;-60
2021/10/15 14:40:36;;;;;;;6.90;4.40;;;;;;;;;;5091362;28;20389;-59
2021/10/15 14:43:05;;;;;;;7.27;4.47;;;;;;;;;;5089364;28;20762;-59
2021/10/15 14:45:32;;;;;;;6.23;4.10;;;;;;;;;;5072981;28;20402;-59
2021/10/15 14:47:59;;;;;;;6.97;3.83;;;;;;;;;;5069374;28;20699;-59
2021/10/15 14:50:26;;;;;;;5.93;4.37;;;;;;;;;;5071466;28;20051;-60
2021/10/15 14:52:53;;;;;;;6.80;4.33;;;;;;;;;;5090337;28;20420;-59
2021/10/15 14:55:21;;;;;;;7.07;4.63;;;;;;;;;;5094698;28;20016;-59
2021/10/15 14:57:48;;;;;;;5.83;4.10;;;;;;;;;;5094308;28;20032;-59
2021/10/15 15:00:15;;;;;;;5.93;4.27;;;;;;;;;;5078193;28;20032;-58
2021/10/15 15:02:42;;;;;;;7.87;5.03;;;;;;;;;;5080482;28;20072;-59
2021/10/15 15:05:09;;;;;;;6.47;4.70;;;;;;;;;;5075279;28;20046;-59
2021/10/15 15:07:36;;;;;;;8.97;4.23;;;;;;;;;;5078629;28;20048;-59
2021/10/15 15:10:03;;;;;;;9.83;4.53;;;;;;;;;;5088979;28;20535;-59